sensor_id;sensor_type;location;lat;lon;timestamp;temperature;humidity
40754;DHT22;26460;42.732;-84.532;2024-03-02T00:00:42;19.40;26.00
40754;DHT22;26460;42.732;-84.532;2024-03-02T00:03:09;19.40;26.00
40754;DHT22;26460;42.732;-84.532;2024-03-02T00:05:35;19.40;25.90
40754;DHT22;26460;42.732;-84.532;2024-03-02T00:08:04;19.40;26.10
40754;DHT22;26460;42.732;-84.532;2024-03-02T00:10:39;19.40;26.00
40754;DHT22;26460;42.732;-84.532;2024-03-02T00:13:07;19.40;26.00
40754;DHT22;26460;42.732;-84.532;2024-03-02T00:18:09;19.30;26.10
40754;DHT22;26460;42.732;-84.532;2024-03-02T00:20:36;19.30;26.10
40754;DHT22;26460;42.732;-84.532;2024-03-02T00:23:05;19.30;26.00
40754;DHT22;26460;42.732;-84.532;2024-03-02T00:25:52;19.30;26.00
40754;DHT22;26460;42.732;-84.532;2024-03-02T00:30:54;19.30;26.20
40754;DHT22;26460;42.732;-84.532;2024-03-02T00:33:21;19.30;26.20
40754;DHT22;26460;42.732;-84.532;2024-03-02T00:35:49;19.30;26.10
40754;DHT22;26460;42.732;-84.532;2024-03-02T00:38:16;19.30;26.10
40754;DHT22;26460;42.732;-84.532;2024-03-02T00:40:43;19.20;25.80
40754;DHT22;26460;42.732;-84.532;2024-03-02T00:46:08;19.20;26.10
40754;DHT22;26460;42.732;-84.532;2024-03-02T00:48:34;19.10;26.10
40754;DHT22;26460;42.732;-84.532;2024-03-02T00:51:03;19.20;26.20
40754;DHT22;26460;42.732;-84.532;2024-03-02T00:53:30;19.20;26.30
40754;DHT22;26460;42.732;-84.532;2024-03-02T00:55:59;19.20;26.30
40754;DHT22;26460;42.732;-84.532;2024-03-02T00:58:26;19.20;26.50
40754;DHT22;26460;42.732;-84.532;2024-03-02T01:00:52;19.20;26.50
40754;DHT22;26460;42.732;-84.532;2024-03-02T01:03:19;19.20;26.50
40754;DHT22;26460;42.732;-84.532;2024-03-02T01:05:45;19.20;26.60
40754;DHT22;26460;42.732;-84.532;2024-03-02T01:08:12;19.20;26.60
40754;DHT22;26460;42.732;-84.532;2024-03-02T01:10:38;19.20;26.70
40754;DHT22;26460;42.732;-84.532;2024-03-02T01:13:05;19.20;26.80
40754;DHT22;26460;42.732;-84.532;2024-03-02T01:15:33;19.20;26.80
40754;DHT22;26460;42.732;-84.532;2024-03-02T01:17:59;19.20;26.80
40754;DHT22;26460;42.732;-84.532;2024-03-02T01:20:26;19.20;26.80
40754;DHT22;26460;42.732;-84.532;2024-03-02T01:22:53;19.20;26.80
40754;DHT22;26460;42.732;-84.532;2024-03-02T01:25:19;19.20;26.90
40754;DHT22;26460;42.732;-84.532;2024-03-02T01:27:46;19.30;26.90
40754;DHT22;26460;42.732;-84.532;2024-03-02T01:30:13;19.30;26.90
40754;DHT22;26460;42.732;-84.532;2024-03-02T01:32:39;19.30;27.00
40754;DHT22;26460;42.732;-84.532;2024-03-02T01:35:06;19.30;27.00
40754;DHT22;26460;42.732;-84.532;2024-03-02T01:37:33;19.30;27.00
40754;DHT22;26460;42.732;-84.532;2024-03-02T01:40:00;19.30;27.10
40754;DHT22;26460;42.732;-84.532;2024-03-02T01:42:29;19.30;27.10
40754;DHT22;26460;42.732;-84.532;2024-03-02T01:44:56;19.30;27.10
40754;DHT22;26460;42.732;-84.532;2024-03-02T01:47:23;19.30;27.10
40754;DHT22;26460;42.732;-84.532;2024-03-02T01:49:49;19.30;27.10
40754;DHT22;26460;42.732;-84.532;2024-03-02T01:52:16;19.30;27.20
40754;DHT22;26460;42.732;-84.532;2024-03-02T01:54:43;19.40;27.20
40754;DHT22;26460;42.732;-84.532;2024-03-02T01:57:10;19.40;27.20
40754;DHT22;26460;42.732;-84.532;2024-03-02T01:59:37;19.40;27.30
40754;DHT22;26460;42.732;-84.532;2024-03-02T02:02:03;19.40;27.30
40754;DHT22;26460;42.732;-84.532;2024-03-02T02:04:30;19.50;27.30
40754;DHT22;26460;42.732;-84.532;2024-03-02T02:06:57;19.40;27.30
40754;DHT22;26460;42.732;-84.532;2024-03-02T02:09:23;19.40;27.30
40754;DHT22;26460;42.732;-84.532;2024-03-02T02:11:51;19.40;27.30
40754;DHT22;26460;42.732;-84.532;2024-03-02T02:14:18;19.50;27.40
40754;DHT22;26460;42.732;-84.532;2024-03-02T02:16:44;19.50;27.30
40754;DHT22;26460;42.732;-84.532;2024-03-02T02:19:12;19.50;27.40
40754;DHT22;26460;42.732;-84.532;2024-03-02T02:21:42;19.50;27.40
40754;DHT22;26460;42.732;-84.532;2024-03-02T02:24:09;19.50;27.50
40754;DHT22;26460;42.732;-84.532;2024-03-02T02:26:36;19.50;27.50
40754;DHT22;26460;42.732;-84.532;2024-03-02T02:29:02;19.50;27.50
40754;DHT22;26460;42.732;-84.532;2024-03-02T02:31:40;19.60;27.40
40754;DHT22;26460;42.732;-84.532;2024-03-02T02:34:07;19.60;27.50
40754;DHT22;26460;42.732;-84.532;2024-03-02T02:36:38;19.60;27.50
40754;DHT22;26460;42.732;-84.532;2024-03-02T02:39:07;19.60;27.50
40754;DHT22;26460;42.732;-84.532;2024-03-02T02:41:34;19.60;27.60
40754;DHT22;26460;42.732;-84.532;2024-03-02T02:44:01;19.60;27.60
40754;DHT22;26460;42.732;-84.532;2024-03-02T02:46:27;19.70;27.60
40754;DHT22;26460;42.732;-84.532;2024-03-02T02:48:54;19.70;28.10
40754;DHT22;26460;42.732;-84.532;2024-03-02T02:51:21;19.70;27.70
40754;DHT22;26460;42.732;-84.532;2024-03-02T02:53:47;19.70;27.70
40754;DHT22;26460;42.732;-84.532;2024-03-02T02:56:14;19.70;27.70
40754;DHT22;26460;42.732;-84.532;2024-03-02T02:58:40;19.70;27.70
40754;DHT22;26460;42.732;-84.532;2024-03-02T03:01:08;19.70;27.80
40754;DHT22;26460;42.732;-84.532;2024-03-02T03:03:34;19.80;27.80
40754;DHT22;26460;42.732;-84.532;2024-03-02T03:06:01;19.80;27.80
40754;DHT22;26460;42.732;-84.532;2024-03-02T03:08:28;19.80;27.80
40754;DHT22;26460;42.732;-84.532;2024-03-02T03:10:55;19.80;27.80
40754;DHT22;26460;42.732;-84.532;2024-03-02T03:13:21;19.80;27.90
40754;DHT22;26460;42.732;-84.532;2024-03-02T03:15:48;19.80;27.90
40754;DHT22;26460;42.732;-84.532;2024-03-02T03:18:15;19.80;28.00
40754;DHT22;26460;42.732;-84.532;2024-03-02T03:20:42;19.90;28.00
40754;DHT22;26460;42.732;-84.532;2024-03-02T03:23:08;19.90;28.00
40754;DHT22;26460;42.732;-84.532;2024-03-02T03:25:35;19.90;28.00
40754;DHT22;26460;42.732;-84.532;2024-03-02T03:28:01;19.90;28.00
40754;DHT22;26460;42.732;-84.532;2024-03-02T03:30:28;19.90;28.00
40754;DHT22;26460;42.732;-84.532;2024-03-02T03:32:54;19.90;28.00
40754;DHT22;26460;42.732;-84.532;2024-03-02T03:35:22;19.90;28.00
40754;DHT22;26460;42.732;-84.532;2024-03-02T03:37:49;20.00;28.10
40754;DHT22;26460;42.732;-84.532;2024-03-02T03:40:15;20.00;28.10
40754;DHT22;26460;42.732;-84.532;2024-03-02T03:42:42;20.00;28.10
40754;DHT22;26460;42.732;-84.532;2024-03-02T03:45:09;20.00;28.00
40754;DHT22;26460;42.732;-84.532;2024-03-02T03:47:35;20.00;28.10
40754;DHT22;26460;42.732;-84.532;2024-03-02T03:50:02;20.00;28.10
40754;DHT22;26460;42.732;-84.532;2024-03-02T03:52:31;20.10;28.10
40754;DHT22;26460;42.732;-84.532;2024-03-02T03:54:58;20.10;28.10
40754;DHT22;26460;42.732;-84.532;2024-03-02T03:57:25;20.10;28.10
40754;DHT22;26460;42.732;-84.532;2024-03-02T03:59:52;20.10;28.20
40754;DHT22;26460;42.732;-84.532;2024-03-02T04:02:19;20.10;28.20
40754;DHT22;26460;42.732;-84.532;2024-03-02T04:04:46;20.20;28.20
40754;DHT22;26460;42.732;-84.532;2024-03-02T04:07:12;20.10;28.20
40754;DHT22;26460;42.732;-84.532;2024-03-02T04:09:39;20.20;28.20
40754;DHT22;26460;42.732;-84.532;2024-03-02T04:12:06;20.20;28.20
40754;DHT22;26460;42.732;-84.532;2024-03-02T04:14:32;20.20;28.20
40754;DHT22;26460;42.732;-84.532;2024-03-02T04:16:59;20.20;28.20
40754;DHT22;26460;42.732;-84.532;2024-03-02T04:19:25;20.20;28.20
40754;DHT22;26460;42.732;-84.532;2024-03-02T04:21:52;20.20;28.30
40754;DHT22;26460;42.732;-84.532;2024-03-02T04:24:18;20.20;28.30
40754;DHT22;26460;42.732;-84.532;2024-03-02T04:26:45;20.20;28.30
40754;DHT22;26460;42.732;-84.532;2024-03-02T04:29:11;20.20;28.80
40754;DHT22;26460;42.732;-84.532;2024-03-02T04:31:38;20.30;28.30
40754;DHT22;26460;42.732;-84.532;2024-03-02T04:34:04;20.20;28.30
40754;DHT22;26460;42.732;-84.532;2024-03-02T04:36:31;20.30;28.30
40754;DHT22;26460;42.732;-84.532;2024-03-02T04:38:57;20.30;28.30
40754;DHT22;26460;42.732;-84.532;2024-03-02T04:41:24;20.30;28.40
40754;DHT22;26460;42.732;-84.532;2024-03-02T04:43:50;20.30;28.40
40754;DHT22;26460;42.732;-84.532;2024-03-02T04:46:17;20.30;28.30
40754;DHT22;26460;42.732;-84.532;2024-03-02T04:48:43;20.40;28.40
40754;DHT22;26460;42.732;-84.532;2024-03-02T04:51:10;20.40;28.40
40754;DHT22;26460;42.732;-84.532;2024-03-02T04:53:37;20.40;28.40
40754;DHT22;26460;42.732;-84.532;2024-03-02T04:56:04;20.40;28.40
40754;DHT22;26460;42.732;-84.532;2024-03-02T04:58:49;20.40;28.40
40754;DHT22;26460;42.732;-84.532;2024-03-02T05:01:15;20.50;28.40
40754;DHT22;26460;42.732;-84.532;2024-03-02T05:03:43;20.40;28.40
40754;DHT22;26460;42.732;-84.532;2024-03-02T05:06:10;20.40;28.30
40754;DHT22;26460;42.732;-84.532;2024-03-02T05:08:45;20.40;28.50
40754;DHT22;26460;42.732;-84.532;2024-03-02T05:11:14;20.40;28.50
40754;DHT22;26460;42.732;-84.532;2024-03-02T05:14:14;20.50;28.40
40754;DHT22;26460;42.732;-84.532;2024-03-02T05:16:41;20.40;28.40
40754;DHT22;26460;42.732;-84.532;2024-03-02T05:19:08;20.50;28.50
40754;DHT22;26460;42.732;-84.532;2024-03-02T05:21:35;20.40;28.40
40754;DHT22;26460;42.732;-84.532;2024-03-02T05:24:01;20.40;28.40
40754;DHT22;26460;42.732;-84.532;2024-03-02T05:26:28;20.50;28.50
40754;DHT22;26460;42.732;-84.532;2024-03-02T05:28:55;20.50;28.50
40754;DHT22;26460;42.732;-84.532;2024-03-02T05:31:21;20.50;28.50
40754;DHT22;26460;42.732;-84.532;2024-03-02T05:33:48;20.50;28.50
40754;DHT22;26460;42.732;-84.532;2024-03-02T05:36:15;20.60;28.50
40754;DHT22;26460;42.732;-84.532;2024-03-02T05:38:41;20.50;28.50
40754;DHT22;26460;42.732;-84.532;2024-03-02T05:41:08;20.60;28.60
40754;DHT22;26460;42.732;-84.532;2024-03-02T05:43:35;20.60;28.60
40754;DHT22;26460;42.732;-84.532;2024-03-02T05:46:02;20.60;28.60
40754;DHT22;26460;42.732;-84.532;2024-03-02T05:48:29;20.60;28.60
40754;DHT22;26460;42.732;-84.532;2024-03-02T05:50:55;20.60;28.60
40754;DHT22;26460;42.732;-84.532;2024-03-02T05:53:22;20.60;28.60
40754;DHT22;26460;42.732;-84.532;2024-03-02T05:55:49;20.60;28.60
40754;DHT22;26460;42.732;-84.532;2024-03-02T05:58:21;20.60;28.60
40754;DHT22;26460;42.732;-84.532;2024-03-02T06:01:18;20.70;28.70
40754;DHT22;26460;42.732;-84.532;2024-03-02T06:03:44;20.70;28.70
40754;DHT22;26460;42.732;-84.532;2024-03-02T06:06:11;20.70;28.70
40754;DHT22;26460;42.732;-84.532;2024-03-02T06:08:38;20.70;28.70
40754;DHT22;26460;42.732;-84.532;2024-03-02T06:11:04;20.70;28.70
40754;DHT22;26460;42.732;-84.532;2024-03-02T06:13:31;20.70;28.70
40754;DHT22;26460;42.732;-84.532;2024-03-02T06:15:58;20.70;28.70
40754;DHT22;26460;42.732;-84.532;2024-03-02T06:18:24;20.70;28.70
40754;DHT22;26460;42.732;-84.532;2024-03-02T06:20:51;20.70;28.80
40754;DHT22;26460;42.732;-84.532;2024-03-02T06:23:17;20.70;28.80
40754;DHT22;26460;42.732;-84.532;2024-03-02T06:25:44;20.70;28.80
40754;DHT22;26460;42.732;-84.532;2024-03-02T06:28:11;20.70;28.80
40754;DHT22;26460;42.732;-84.532;2024-03-02T06:30:37;20.80;28.80
40754;DHT22;26460;42.732;-84.532;2024-03-02T06:33:04;20.80;28.80
40754;DHT22;26460;42.732;-84.532;2024-03-02T06:35:32;20.80;28.80
40754;DHT22;26460;42.732;-84.532;2024-03-02T06:37:58;20.80;28.80
40754;DHT22;26460;42.732;-84.532;2024-03-02T06:40:25;20.90;28.90
40754;DHT22;26460;42.732;-84.532;2024-03-02T06:42:51;20.90;28.80
40754;DHT22;26460;42.732;-84.532;2024-03-02T06:45:18;20.90;28.90
40754;DHT22;26460;42.732;-84.532;2024-03-02T06:47:45;20.90;28.80
40754;DHT22;26460;42.732;-84.532;2024-03-02T06:50:12;21.00;28.90
40754;DHT22;26460;42.732;-84.532;2024-03-02T06:52:38;20.90;28.80
40754;DHT22;26460;42.732;-84.532;2024-03-02T06:55:05;20.90;28.90
40754;DHT22;26460;42.732;-84.532;2024-03-02T06:57:32;20.90;28.90
40754;DHT22;26460;42.732;-84.532;2024-03-02T06:59:59;20.90;28.90
40754;DHT22;26460;42.732;-84.532;2024-03-02T07:02:25;21.00;28.90
40754;DHT22;26460;42.732;-84.532;2024-03-02T07:04:56;21.00;28.90
40754;DHT22;26460;42.732;-84.532;2024-03-02T07:07:22;21.00;28.90
40754;DHT22;26460;42.732;-84.532;2024-03-02T07:09:49;21.00;29.00
40754;DHT22;26460;42.732;-84.532;2024-03-02T07:12:16;21.00;28.90
40754;DHT22;26460;42.732;-84.532;2024-03-02T07:14:42;21.00;28.90
40754;DHT22;26460;42.732;-84.532;2024-03-02T07:17:27;21.00;29.10
40754;DHT22;26460;42.732;-84.532;2024-03-02T07:19:54;21.00;28.90
40754;DHT22;26460;42.732;-84.532;2024-03-02T07:22:20;21.10;29.00
40754;DHT22;26460;42.732;-84.532;2024-03-02T07:24:47;21.10;29.00
40754;DHT22;26460;42.732;-84.532;2024-03-02T07:27:14;21.10;29.00
40754;DHT22;26460;42.732;-84.532;2024-03-02T07:29:41;21.10;29.00
40754;DHT22;26460;42.732;-84.532;2024-03-02T07:32:08;21.10;29.00
40754;DHT22;26460;42.732;-84.532;2024-03-02T07:34:35;21.10;29.00
40754;DHT22;26460;42.732;-84.532;2024-03-02T07:37:04;21.10;29.00
40754;DHT22;26460;42.732;-84.532;2024-03-02T07:39:30;21.10;29.00
40754;DHT22;26460;42.732;-84.532;2024-03-02T07:41:57;21.20;29.00
40754;DHT22;26460;42.732;-84.532;2024-03-02T07:44:24;21.20;29.00
40754;DHT22;26460;42.732;-84.532;2024-03-02T07:46:51;21.10;29.00
40754;DHT22;26460;42.732;-84.532;2024-03-02T07:49:21;21.20;29.00
40754;DHT22;26460;42.732;-84.532;2024-03-02T07:51:47;21.20;29.00
40754;DHT22;26460;42.732;-84.532;2024-03-02T07:54:14;21.20;29.00
40754;DHT22;26460;42.732;-84.532;2024-03-02T07:56:40;21.20;29.10
40754;DHT22;26460;42.732;-84.532;2024-03-02T07:59:07;21.30;29.10
40754;DHT22;26460;42.732;-84.532;2024-03-02T08:01:34;21.30;29.10
40754;DHT22;26460;42.732;-84.532;2024-03-02T08:04:01;21.20;29.00
40754;DHT22;26460;42.732;-84.532;2024-03-02T08:06:30;21.30;29.10
40754;DHT22;26460;42.732;-84.532;2024-03-02T08:08:57;21.30;29.10
40754;DHT22;26460;42.732;-84.532;2024-03-02T08:11:25;21.30;29.00
40754;DHT22;26460;42.732;-84.532;2024-03-02T08:13:51;21.30;29.00
40754;DHT22;26460;42.732;-84.532;2024-03-02T08:16:22;21.30;29.10
40754;DHT22;26460;42.732;-84.532;2024-03-02T08:18:49;21.30;29.10
40754;DHT22;26460;42.732;-84.532;2024-03-02T08:21:16;21.40;29.10
40754;DHT22;26460;42.732;-84.532;2024-03-02T08:23:43;21.40;29.10
40754;DHT22;26460;42.732;-84.532;2024-03-02T08:26:10;21.40;29.10
40754;DHT22;26460;42.732;-84.532;2024-03-02T08:28:37;21.40;29.10
40754;DHT22;26460;42.732;-84.532;2024-03-02T08:31:04;21.40;29.10
40754;DHT22;26460;42.732;-84.532;2024-03-02T08:33:30;21.40;29.10
40754;DHT22;26460;42.732;-84.532;2024-03-02T08:35:57;21.40;29.10
40754;DHT22;26460;42.732;-84.532;2024-03-02T08:38:23;21.40;29.10
40754;DHT22;26460;42.732;-84.532;2024-03-02T08:40:50;21.50;29.10
40754;DHT22;26460;42.732;-84.532;2024-03-02T08:43:17;21.50;29.10
40754;DHT22;26460;42.732;-84.532;2024-03-02T08:45:45;21.50;29.10
40754;DHT22;26460;42.732;-84.532;2024-03-02T08:48:11;21.50;29.10
40754;DHT22;26460;42.732;-84.532;2024-03-02T08:50:38;21.50;29.10
40754;DHT22;26460;42.732;-84.532;2024-03-02T08:53:05;21.50;29.10
40754;DHT22;26460;42.732;-84.532;2024-03-02T08:55:31;21.50;29.60
40754;DHT22;26460;42.732;-84.532;2024-03-02T08:57:58;21.50;29.10
40754;DHT22;26460;42.732;-84.532;2024-03-02T09:00:25;21.50;29.10
40754;DHT22;26460;42.732;-84.532;2024-03-02T09:02:51;21.60;29.10
40754;DHT22;26460;42.732;-84.532;2024-03-02T09:05:18;21.60;29.10
40754;DHT22;26460;42.732;-84.532;2024-03-02T09:07:44;21.60;29.10
40754;DHT22;26460;42.732;-84.532;2024-03-02T09:10:12;21.60;29.10
40754;DHT22;26460;42.732;-84.532;2024-03-02T09:12:38;21.60;29.10
40754;DHT22;26460;42.732;-84.532;2024-03-02T09:15:06;21.60;29.10
40754;DHT22;26460;42.732;-84.532;2024-03-02T09:17:33;21.70;29.10
40754;DHT22;26460;42.732;-84.532;2024-03-02T09:19:59;21.70;29.10
40754;DHT22;26460;42.732;-84.532;2024-03-02T09:22:26;21.70;29.10
40754;DHT22;26460;42.732;-84.532;2024-03-02T09:24:52;21.70;29.20
40754;DHT22;26460;42.732;-84.532;2024-03-02T09:27:19;21.60;29.10
40754;DHT22;26460;42.732;-84.532;2024-03-02T09:29:46;21.70;29.10
40754;DHT22;26460;42.732;-84.532;2024-03-02T09:32:13;21.70;29.20
40754;DHT22;26460;42.732;-84.532;2024-03-02T09:34:41;21.70;29.70
40754;DHT22;26460;42.732;-84.532;2024-03-02T09:37:07;21.70;29.10
40754;DHT22;26460;42.732;-84.532;2024-03-02T09:39:34;21.80;29.10
40754;DHT22;26460;42.732;-84.532;2024-03-02T09:42:01;21.70;29.10
40754;DHT22;26460;42.732;-84.532;2024-03-02T09:44:27;21.70;29.10
40754;DHT22;26460;42.732;-84.532;2024-03-02T09:46:54;21.80;29.20
40754;DHT22;26460;42.732;-84.532;2024-03-02T09:49:21;21.80;29.10
40754;DHT22;26460;42.732;-84.532;2024-03-02T09:51:48;21.80;29.20
40754;DHT22;26460;42.732;-84.532;2024-03-02T09:54:18;21.80;29.10
40754;DHT22;26460;42.732;-84.532;2024-03-02T09:56:45;21.80;29.10
40754;DHT22;26460;42.732;-84.532;2024-03-02T09:59:11;21.80;29.20
40754;DHT22;26460;42.732;-84.532;2024-03-02T10:01:39;21.80;29.20
40754;DHT22;26460;42.732;-84.532;2024-03-02T10:04:06;21.80;29.20
40754;DHT22;26460;42.732;-84.532;2024-03-02T10:06:32;21.90;29.20
40754;DHT22;26460;42.732;-84.532;2024-03-02T10:08:59;21.90;29.10
40754;DHT22;26460;42.732;-84.532;2024-03-02T10:11:27;21.90;29.10
40754;DHT22;26460;42.732;-84.532;2024-03-02T10:14:11;21.90;29.10
40754;DHT22;26460;42.732;-84.532;2024-03-02T10:16:39;21.90;29.10
40754;DHT22;26460;42.732;-84.532;2024-03-02T10:19:15;21.90;29.10
40754;DHT22;26460;42.732;-84.532;2024-03-02T10:21:44;22.00;29.10
40754;DHT22;26460;42.732;-84.532;2024-03-02T10:24:10;22.00;29.10
40754;DHT22;26460;42.732;-84.532;2024-03-02T10:26:37;22.00;29.10
40754;DHT22;26460;42.732;-84.532;2024-03-02T10:29:03;22.00;29.10
40754;DHT22;26460;42.732;-84.532;2024-03-02T10:31:30;22.00;29.10
40754;DHT22;26460;42.732;-84.532;2024-03-02T10:34:00;22.00;29.10
40754;DHT22;26460;42.732;-84.532;2024-03-02T10:36:28;22.00;29.10
40754;DHT22;26460;42.732;-84.532;2024-03-02T10:38:58;22.00;29.10
40754;DHT22;26460;42.732;-84.532;2024-03-02T10:41:27;22.10;29.10
40754;DHT22;26460;42.732;-84.532;2024-03-02T10:43:55;22.00;29.10
40754;DHT22;26460;42.732;-84.532;2024-03-02T10:46:30;22.10;29.10
40754;DHT22;26460;42.732;-84.532;2024-03-02T10:48:57;22.10;29.20
40754;DHT22;26460;42.732;-84.532;2024-03-02T10:51:28;22.10;29.10
40754;DHT22;26460;42.732;-84.532;2024-03-02T10:54:01;22.10;29.10
40754;DHT22;26460;42.732;-84.532;2024-03-02T10:56:39;22.10;29.10
40754;DHT22;26460;42.732;-84.532;2024-03-02T10:59:28;22.10;29.10
40754;DHT22;26460;42.732;-84.532;2024-03-02T11:01:58;22.10;29.10
40754;DHT22;26460;42.732;-84.532;2024-03-02T11:04:27;22.10;29.10
40754;DHT22;26460;42.732;-84.532;2024-03-02T11:07:07;22.10;29.10
40754;DHT22;26460;42.732;-84.532;2024-03-02T11:09:40;22.20;29.10
40754;DHT22;26460;42.732;-84.532;2024-03-02T11:12:24;22.20;29.10
40754;DHT22;26460;42.732;-84.532;2024-03-02T11:14:53;22.20;29.10
40754;DHT22;26460;42.732;-84.532;2024-03-02T11:17:22;22.20;29.10
40754;DHT22;26460;42.732;-84.532;2024-03-02T11:19:50;22.20;29.10
40754;DHT22;26460;42.732;-84.532;2024-03-02T11:22:16;22.20;29.10
40754;DHT22;26460;42.732;-84.532;2024-03-02T11:24:51;22.20;29.10
40754;DHT22;26460;42.732;-84.532;2024-03-02T11:32:59;22.30;29.10
40754;DHT22;26460;42.732;-84.532;2024-03-02T11:35:26;22.30;29.10
40754;DHT22;26460;42.732;-84.532;2024-03-02T11:37:54;22.30;29.10
40754;DHT22;26460;42.732;-84.532;2024-03-02T11:40:28;22.30;29.10
40754;DHT22;26460;42.732;-84.532;2024-03-02T11:42:54;22.30;29.10
40754;DHT22;26460;42.732;-84.532;2024-03-02T11:45:25;22.30;29.10
40754;DHT22;26460;42.732;-84.532;2024-03-02T11:47:54;22.30;29.10
40754;DHT22;26460;42.732;-84.532;2024-03-02T11:50:31;22.30;29.10
40754;DHT22;26460;42.732;-84.532;2024-03-02T11:53:00;22.30;29.10
40754;DHT22;26460;42.732;-84.532;2024-03-02T11:55:27;22.30;29.10
40754;DHT22;26460;42.732;-84.532;2024-03-02T11:57:55;22.40;29.10
40754;DHT22;26460;42.732;-84.532;2024-03-02T12:00:22;22.40;29.10
40754;DHT22;26460;42.732;-84.532;2024-03-02T12:03:00;22.40;29.10
40754;DHT22;26460;42.732;-84.532;2024-03-02T12:05:28;22.40;29.20
40754;DHT22;26460;42.732;-84.532;2024-03-02T12:07:58;22.40;29.10
40754;DHT22;26460;42.732;-84.532;2024-03-02T12:10:26;22.40;29.10
40754;DHT22;26460;42.732;-84.532;2024-03-02T12:13:00;22.40;29.10
40754;DHT22;26460;42.732;-84.532;2024-03-02T12:15:29;22.50;29.10
40754;DHT22;26460;42.732;-84.532;2024-03-02T12:18:00;22.50;29.10
40754;DHT22;26460;42.732;-84.532;2024-03-02T12:20:28;22.50;29.10
40754;DHT22;26460;42.732;-84.532;2024-03-02T12:22:58;22.50;29.10
40754;DHT22;26460;42.732;-84.532;2024-03-02T12:25:26;22.50;29.10
40754;DHT22;26460;42.732;-84.532;2024-03-02T12:27:55;22.50;29.10
40754;DHT22;26460;42.732;-84.532;2024-03-02T12:30:23;22.50;29.10
40754;DHT22;26460;42.732;-84.532;2024-03-02T12:32:50;22.50;29.10
40754;DHT22;26460;42.732;-84.532;2024-03-02T12:35:18;22.50;29.10
40754;DHT22;26460;42.732;-84.532;2024-03-02T12:37:46;22.60;29.10
40754;DHT22;26460;42.732;-84.532;2024-03-02T12:40:14;22.50;29.10
40754;DHT22;26460;42.732;-84.532;2024-03-02T12:42:40;22.50;29.10
40754;DHT22;26460;42.732;-84.532;2024-03-02T12:45:10;22.60;29.10
40754;DHT22;26460;42.732;-84.532;2024-03-02T12:47:40;22.60;29.10
40754;DHT22;26460;42.732;-84.532;2024-03-02T12:50:07;22.60;29.10
40754;DHT22;26460;42.732;-84.532;2024-03-02T12:52:34;22.60;29.10
40754;DHT22;26460;42.732;-84.532;2024-03-02T12:55:04;22.60;29.10
40754;DHT22;26460;42.732;-84.532;2024-03-02T12:57:32;22.60;29.10
40754;DHT22;26460;42.732;-84.532;2024-03-02T13:00:00;22.60;29.10
40754;DHT22;26460;42.732;-84.532;2024-03-02T13:02:31;22.60;29.10
40754;DHT22;26460;42.732;-84.532;2024-03-02T13:05:00;22.60;29.00
40754;DHT22;26460;42.732;-84.532;2024-03-02T13:07:27;22.60;29.00
40754;DHT22;26460;42.732;-84.532;2024-03-02T13:09:54;22.70;29.10
40754;DHT22;26460;42.732;-84.532;2024-03-02T13:12:24;22.70;29.10
40754;DHT22;26460;42.732;-84.532;2024-03-02T13:14:54;22.70;29.10
40754;DHT22;26460;42.732;-84.532;2024-03-02T13:17:21;22.70;29.00
40754;DHT22;26460;42.732;-84.532;2024-03-02T13:20:06;22.70;29.10
40754;DHT22;26460;42.732;-84.532;2024-03-02T13:22:36;22.70;29.00
40754;DHT22;26460;42.732;-84.532;2024-03-02T13:25:03;22.70;29.00
40754;DHT22;26460;42.732;-84.532;2024-03-02T13:27:31;22.70;29.00
40754;DHT22;26460;42.732;-84.532;2024-03-02T13:30:02;22.70;29.50
40754;DHT22;26460;42.732;-84.532;2024-03-02T13:32:29;22.80;29.00
40754;DHT22;26460;42.732;-84.532;2024-03-02T13:34:55;22.80;29.00
40754;DHT22;26460;42.732;-84.532;2024-03-02T13:37:22;22.80;29.00
40754;DHT22;26460;42.732;-84.532;2024-03-02T13:39:49;22.80;29.00
40754;DHT22;26460;42.732;-84.532;2024-03-02T13:42:16;22.80;29.00
40754;DHT22;26460;42.732;-84.532;2024-03-02T13:44:46;22.80;29.10
40754;DHT22;26460;42.732;-84.532;2024-03-02T13:47:14;22.80;29.10
40754;DHT22;26460;42.732;-84.532;2024-03-02T13:49:41;22.80;29.00
40754;DHT22;26460;42.732;-84.532;2024-03-02T13:52:12;22.80;29.00
40754;DHT22;26460;42.732;-84.532;2024-03-02T13:54:47;22.90;29.00
40754;DHT22;26460;42.732;-84.532;2024-03-02T13:57:14;22.90;29.00
40754;DHT22;26460;42.732;-84.532;2024-03-02T13:59:42;22.90;29.00
40754;DHT22;26460;42.732;-84.532;2024-03-02T14:02:09;22.90;29.00
40754;DHT22;26460;42.732;-84.532;2024-03-02T14:04:37;22.90;29.50
40754;DHT22;26460;42.732;-84.532;2024-03-02T14:07:05;22.90;29.00
40754;DHT22;26460;42.732;-84.532;2024-03-02T14:09:34;22.90;29.10
40754;DHT22;26460;42.732;-84.532;2024-03-02T14:12:02;22.90;29.00
40754;DHT22;26460;42.732;-84.532;2024-03-02T14:14:30;22.90;29.00
40754;DHT22;26460;42.732;-84.532;2024-03-02T14:16:56;22.90;29.00
40754;DHT22;26460;42.732;-84.532;2024-03-02T14:19:26;23.00;29.00
40754;DHT22;26460;42.732;-84.532;2024-03-02T14:21:53;23.00;29.00
40754;DHT22;26460;42.732;-84.532;2024-03-02T14:24:20;23.00;29.00
40754;DHT22;26460;42.732;-84.532;2024-03-02T14:26:50;23.00;29.00
40754;DHT22;26460;42.732;-84.532;2024-03-02T14:29:16;23.00;29.00
40754;DHT22;26460;42.732;-84.532;2024-03-02T14:31:43;23.10;29.00
40754;DHT22;26460;42.732;-84.532;2024-03-02T14:34:10;23.10;28.90
40754;DHT22;26460;42.732;-84.532;2024-03-02T14:36:36;23.10;28.90
40754;DHT22;26460;42.732;-84.532;2024-03-02T14:39:03;23.00;28.90
40754;DHT22;26460;42.732;-84.532;2024-03-02T14:41:30;23.00;28.90
40754;DHT22;26460;42.732;-84.532;2024-03-02T14:43:57;23.00;28.90
40754;DHT22;26460;42.732;-84.532;2024-03-02T14:46:23;23.00;28.80
40754;DHT22;26460;42.732;-84.532;2024-03-02T14:48:50;23.00;28.90
40754;DHT22;26460;42.732;-84.532;2024-03-02T14:51:16;23.00;28.80
40754;DHT22;26460;42.732;-84.532;2024-03-02T14:53:43;23.00;28.80
40754;DHT22;26460;42.732;-84.532;2024-03-02T14:56:10;23.00;28.80
40754;DHT22;26460;42.732;-84.532;2024-03-02T14:58:36;23.00;28.70
40754;DHT22;26460;42.732;-84.532;2024-03-02T15:01:06;22.90;28.70
40754;DHT22;26460;42.732;-84.532;2024-03-02T15:03:36;22.90;28.70
40754;DHT22;26460;42.732;-84.532;2024-03-02T15:06:03;22.90;28.80
40754;DHT22;26460;42.732;-84.532;2024-03-02T15:08:30;22.90;28.70
40754;DHT22;26460;42.732;-84.532;2024-03-02T15:10:57;22.90;28.70
40754;DHT22;26460;42.732;-84.532;2024-03-02T15:13:25;22.90;28.70
40754;DHT22;26460;42.732;-84.532;2024-03-02T15:15:52;22.80;28.70
40754;DHT22;26460;42.732;-84.532;2024-03-02T15:18:19;22.90;28.70
40754;DHT22;26460;42.732;-84.532;2024-03-02T15:20:46;22.90;28.70